Time;durP1;ratioP1;P1;durP2;ratioP2;P2;SDS_P1;SDS_P2;PMS_P1;PMS_P2;Temp;Humidity;BMP_temperature;BMP_pressure;BME280_temperature;BME280_humidity;BME280_pressure;Samples;Min_cycle;Max_cycle;Signal;HPM_P1;HPM_P2
2021/09/30 00:01:34;;;;;;;1.10;0.85;;;;;;;17.24;46.90;96359.25;4952462;28;20036;-65
2021/09/30 00:03:59;;;;;;;0.85;0.40;;;;;;;16.84;47.71;96345.97;4944373;28;20094;-65
2021/09/30 00:06:24;;;;;;;0.47;0.43;;;;;;;16.42;49.23;96360.84;4927074;28;20048;-65
2021/09/30 00:08:50;;;;;;;2.38;0.63;;;;;;;16.48;49.03;96371.16;4951441;28;20040;-65
2021/09/30 00:11:21;;;;;;;1.70;0.60;;;;;;;15.24;51.86;96360.31;4954233;29;20063;-65
2021/09/30 00:13:58;;;;;;;1.05;0.40;;;;;;;16.26;49.29;96347.03;4952312;29;20042;-65
2021/09/30 00:16:47;;;;;;;1.08;0.40;;;;;;;15.30;52.41;96364.44;4952257;28;20050;-65
2021/09/30 00:32:56;;;;;;;1.23;0.40;;;;;;;16.62;47.62;96352.22;4948370;28;20121;-65
2021/09/30 00:35:32;;;;;;;1.17;0.60;;;;;;;16.19;48.87;96368.97;4932383;28;20031;-65
2021/09/30 00:41:40;;;;;;;1.55;0.55;;;;;;;17.23;46.40;96369.22;4951228;28;20066;-65
2021/09/30 00:46:21;;;;;;;2.25;0.50;;;;;;;16.68;46.93;96377.03;4947649;28;20090;-64
2021/09/30 03:00:14;;;;;;;2.97;0.70;;;;;;;17.76;44.95;96450.72;4949191;28;20047;-63
2021/09/30 03:02:43;;;;;;;1.88;0.50;;;;;;;17.66;44.71;96441.88;4949730;28;20381;-64
2021/09/30 03:05:12;;;;;;;3.08;0.82;;;;;;;17.89;44.66;96441.72;4949304;29;20409;-64
2021/09/30 03:07:39;;;;;;;1.02;0.47;;;;;;;17.72;44.78;96441.72;4929742;28;20051;-64
2021/09/30 03:10:05;;;;;;;1.58;0.52;;;;;;;16.88;46.23;96449.81;4943657;28;20074;-63
2021/09/30 03:12:33;;;;;;;3.20;0.40;;;;;;;17.21;45.70;96449.44;4958875;28;20035;-64
2021/09/30 03:15:51;;;;;;;3.40;0.70;;;;;;;17.54;46.03;96462.44;4968524;28;20469;-64
2021/09/30 03:17:55;;;;;;;1.17;0.50;;;;;;;17.77;45.72;96458.50;4970290;28;20039;-63
2021/09/30 03:20:42;;;;;;;4.03;0.77;;;;;;;17.91;45.29;96458.31;4945396;28;20028;-63
2021/09/30 03:23:11;;;;;;;1.35;0.60;;;;;;;18.04;45.71;96462.75;4928677;29;20103;-63
2021/09/30 03:25:37;;;;;;;1.30;0.57;;;;;;;18.10;45.78;96468.75;4948245;28;20486;-63
2021/09/30 03:28:04;;;;;;;3.17;0.90;;;;;;;18.12;46.02;96464.66;4963012;28;20062;-63
2021/09/30 03:30:31;;;;;;;5.65;0.52;;;;;;;18.17;46.10;96466.38;4967857;28;20062;-63
2021/09/30 03:33:02;;;;;;;3.08;0.85;;;;;;;18.21;46.15;96461.13;4968166;28;20039;-64
2021/09/30 03:35:27;;;;;;;1.08;0.55;;;;;;;18.19;46.33;96464.94;4943934;28;20016;-64
2021/09/30 03:37:53;;;;;;;2.33;0.85;;;;;;;18.21;46.10;96461.13;4926824;29;20020;-63
2021/09/30 03:40:18;;;;;;;1.25;0.70;;;;;;;18.31;45.93;96468.88;4945291;28;20063;-65
2021/09/30 03:42:44;;;;;;;3.13;0.65;;;;;;;18.30;46.15;96467.28;4948732;28;20036;-63
2021/09/30 03:45:09;;;;;;;3.92;0.90;;;;;;;18.30;46.02;96461.91;4949056;28;20414;-64
2021/09/30 03:47:35;;;;;;;3.00;0.88;;;;;;;18.26;46.02;96469.03;4948931;28;20504;-65
2021/09/30 03:50:01;;;;;;;1.95;0.80;;;;;;;18.25;46.27;96476.34;4949991;29;20050;-61
2021/09/30 04:00:17;;;;;;;1.38;0.70;;;;;;;17.91;46.97;96469.09;4950617;28;20461;-61
2021/09/30 04:02:43;;;;;;;4.75;0.85;;;;;;;17.84;47.04;96471.47;4952211;28;20031;-65
2021/09/30 04:05:11;;;;;;;1.88;0.80;;;;;;;17.68;47.21;96461.16;4953853;29;20036;-66
2021/09/30 04:07:36;;;;;;;2.20;0.80;;;;;;;17.58;47.27;96461.47;4952209;28;20073;-66
2021/09/30 04:10:02;;;;;;;2.75;0.77;;;;;;;17.54;47.57;96462.44;4951629;28;20473;-67
2021/09/30 04:12:28;;;;;;;0.90;0.63;;;;;;;17.50;47.81;96466.84;4961350;28;20039;-66
2021/09/30 04:14:53;;;;;;;4.43;0.80;;;;;;;17.50;47.75;96473.03;4971880;28;20031;-66
2021/09/30 04:17:18;;;;;;;2.70;0.90;;;;;;;17.47;47.87;96464.81;4974159;28;20102;-65
2021/09/30 04:19:44;;;;;;;4.57;1.10;;;;;;;17.39;47.85;96453.72;4967067;28;20042;-66
2021/09/30 04:22:09;;;;;;;3.97;0.60;;;;;;;17.61;47.56;96477.00;4929703;28;20549;-65
2021/09/30 04:24:35;;;;;;;1.50;0.80;;;;;;;17.68;47.36;96479.22;4953491;28;20049;-68
2021/09/30 04:27:00;;;;;;;3.75;0.88;;;;;;;17.73;47.28;96473.72;4972038;28;20129;-62
2021/09/30 04:29:26;;;;;;;3.20;0.77;;;;;;;17.86;47.17;96486.22;4971663;28;20110;-63
2021/09/30 04:31:51;;;;;;;1.05;0.85;;;;;;;17.83;46.89;96477.97;4988675;28;20022;-64
2021/09/30 04:34:17;;;;;;;3.90;1.10;;;;;;;17.91;47.31;96493.31;4969614;28;20039;-61
2021/09/30 04:36:42;;;;;;;0.70;0.50;;;;;;;17.85;46.97;96486.50;4927747;28;20529;-61
2021/09/30 04:39:08;;;;;;;4.93;1.35;;;;;;;17.84;47.19;96498.41;4920844;29;20052;-62
2021/09/30 04:41:34;;;;;;;0.95;0.70;;;;;;;17.84;47.22;96501.09;4932028;28;20107;-61
2021/09/30 04:43:59;;;;;;;3.63;0.80;;;;;;;17.72;47.29;96495.53;4953405;29;20042;-62
2021/09/30 04:46:24;;;;;;;2.28;0.70;;;;;;;17.67;47.45;96502.66;4951598;28;20663;-62
2021/09/30 04:48:50;;;;;;;3.20;1.17;;;;;;;17.65;47.46;96509.44;4951012;28;20043;-63
2021/09/30 04:51:17;;;;;;;1.75;0.82;;;;;;;17.53;47.52;96493.91;4956931;28;20041;-62
2021/09/30 04:53:43;;;;;;;1.33;0.93;;;;;;;17.49;47.72;96514.47;4951398;28;20383;-62
2021/09/30 04:56:10;;;;;;;3.20;0.90;;;;;;;17.41;47.81;96505.31;4953274;29;20031;-62
2021/09/30 04:58:35;;;;;;;3.05;0.98;;;;;;;17.36;47.82;96513.53;4951106;28;20043;-61
2021/09/30 05:01:01;;;;;;;3.58;0.90;;;;;;;17.28;47.85;96510.81;4937844;28;20040;-61
2021/09/30 05:03:26;;;;;;;6.80;1.10;;;;;;;17.14;47.86;96495.56;4941224;28;20692;-62
2021/09/30 05:05:51;;;;;;;3.13;0.90;;;;;;;17.11;48.05;96503.50;4950880;28;20441;-62
2021/09/30 05:08:17;;;;;;;4.03;0.90;;;;;;;17.02;48.43;96508.06;4952961;29;20098;-62
2021/09/30 05:10:44;;;;;;;4.78;2.20;;;;;;;16.88;48.64;96500.09;4964779;28;20031;-62
2021/09/30 05:13:17;;;;;;;3.58;1.92;;;;;;;16.83;48.77;96502.91;4950680;28;20603;-62
2021/09/30 05:15:43;;;;;;;7.88;2.00;;;;;;;16.79;48.77;96504.66;4951285;28;20044;-62
2021/09/30 05:18:10;;;;;;;6.45;1.52;;;;;;;16.72;49.04;96504.28;4951159;28;20028;-62
2021/09/30 05:20:36;;;;;;;2.15;1.38;;;;;;;16.68;49.07;96506.78;4950049;28;20034;-62
2021/09/30 05:23:01;;;;;;;2.75;1.48;;;;;;;16.63;49.22;96501.53;4952523;29;20027;-63
2021/09/30 05:25:27;;;;;;;5.28;1.30;;;;;;;16.53;49.44;96499.13;4949506;28;20043;-62
2021/09/30 05:27:54;;;;;;;3.95;1.50;;;;;;;16.49;49.53;96507.00;4938626;28;20047;-61
2021/09/30 05:30:20;;;;;;;3.20;1.30;;;;;;;16.55;49.52;96507.66;4939484;28;20089;-61
2021/09/30 05:32:46;;;;;;;3.95;1.40;;;;;;;16.58;49.87;96509.72;4951024;28;20082;-61
2021/09/30 05:35:12;;;;;;;4.80;1.30;;;;;;;16.56;49.44;96501.19;4952181;29;20500;-63
2021/09/30 05:37:37;;;;;;;4.07;2.33;;;;;;;16.62;49.62;96511.50;4950430;28;20039;-63
2021/09/30 05:40:03;;;;;;;3.00;1.52;;;;;;;16.66;49.87;96503.63;4950233;28;20412;-63
2021/09/30 05:42:29;;;;;;;2.33;1.38;;;;;;;16.80;49.85;96511.63;4950489;28;20657;-63
2021/09/30 05:44:58;;;;;;;11.98;1.88;;;;;;;16.98;49.88;96518.63;4950544;28;20051;-61
2021/09/30 05:47:24;;;;;;;3.53;1.20;;;;;;;17.05;49.70;96502.06;4949973;28;20031;-67
2021/09/30 05:49:49;;;;;;;3.78;1.20;;;;;;;17.16;49.46;96511.41;4951440;29;20042;-64
2021/09/30 05:52:14;;;;;;;2.03;1.10;;;;;;;17.15;49.47;96485.66;4962598;28;20054;-65
2021/09/30 05:54:40;;;;;;;2.58;1.30;;;;;;;17.36;49.29;96507.34;4949832;28;20027;-63
2021/09/30 05:57:05;;;;;;;3.25;1.50;;;;;;;17.40;48.90;96510.97;4949956;28;20031;-63
2021/09/30 05:59:31;;;;;;;1.73;1.30;;;;;;;17.41;48.95;96509.91;4947972;28;20038;-65
2021/09/30 06:12:40;;;;;;;5.57;3.90;;;;;;;17.55;48.09;96518.59;4949544;28;20042;-65
2021/09/30 06:15:14;;;;;;;4.70;1.58;;;;;;;17.59;47.70;96521.47;4949976;28;20035;-67
2021/09/30 06:17:42;;;;;;;2.35;0.90;;;;;;;17.57;47.71;96519.09;4949799;28;20202;-66
2021/09/30 06:20:07;;;;;;;3.70;1.55;;;;;;;17.43;47.47;96518.44;4951109;29;20405;-65
2021/09/30 06:22:33;;;;;;;1.52;1.00;;;;;;;17.33;47.45;96514.13;4949371;28;20050;-65
2021/09/30 06:24:58;;;;;;;3.15;1.00;;;;;;;17.47;47.41;96524.78;4949556;28;20032;-67
2021/09/30 06:27:24;;;;;;;2.92;1.10;;;;;;;17.55;47.28;96515.13;4949453;28;20202;-66
2021/09/30 06:29:49;;;;;;;8.10;1.08;;;;;;;17.64;47.01;96515.94;4949394;28;20035;-66
2021/09/30 06:32:14;;;;;;;2.35;1.27;;;;;;;17.59;46.67;96519.56;4951500;28;20023;-65
2021/09/30 06:34:41;;;;;;;6.72;4.07;;;;;;;17.56;46.93;96511.34;4949140;28;20122;-65
2021/09/30 06:37:07;;;;;;;13.05;11.30;;;;;;;17.67;46.70;96526.06;4934213;28;20186;-64
2021/09/30 06:39:32;;;;;;;14.80;10.05;;;;;;;17.71;46.68;96534.28;4939192;28;20047;-64
2021/09/30 06:41:57;;;;;;;3.55;1.20;;;;;;;17.31;46.52;96537.88;4949379;28;20047;-64
2021/09/30 06:44:23;;;;;;;2.35;0.80;;;;;;;16.61;47.79;96544.03;4949160;28;20030;-70
2021/09/30 06:46:48;;;;;;;5.63;2.28;;;;;;;17.06;46.62;96515.19;4951128;29;20449;-67
2021/09/30 06:49:13;;;;;;;2.20;1.27;;;;;;;17.35;46.18;96532.66;4949012;28;20039;-66
2021/09/30 06:51:39;;;;;;;2.38;0.88;;;;;;;17.47;46.10;96524.78;4944858;28;20043;-68
2021/09/30 06:54:05;;;;;;;2.47;0.80;;;;;;;17.52;45.93;96535.38;4935588;28;20083;-67
2021/09/30 06:56:31;;;;;;;2.25;0.90;;;;;;;17.27;46.24;96531.53;4943148;28;20031;-66
2021/09/30 06:59:03;;;;;;;1.83;0.88;;;;;;;17.43;46.00;96518.44;4969767;28;20034;-67
2021/09/30 07:01:29;;;;;;;2.22;1.10;;;;;;;16.53;47.56;96542.09;4968730;28;20493;-69
2021/09/30 07:03:54;;;;;;;1.92;1.00;;;;;;;15.84;47.91;96537.03;4968463;28;20027;-68
2021/09/30 07:06:20;;;;;;;3.55;1.10;;;;;;;16.81;46.41;96543.53;4938877;28;20044;-68
2021/09/30 07:08:45;;;;;;;2.65;1.00;;;;;;;17.57;45.25;96546.00;4923788;28;20040;-66
2021/09/30 07:11:11;;;;;;;3.25;0.75;;;;;;;16.98;45.43;96537.44;4948280;29;20024;-66
2021/09/30 07:13:36;;;;;;;4.07;1.10;;;;;;;17.54;44.54;96545.81;4967494;28;20046;-66
2021/09/30 07:16:01;;;;;;;8.77;0.82;;;;;;;17.96;44.42;96549.69;4968587;28;20049;-71
2021/09/30 07:18:27;;;;;;;3.83;1.10;;;;;;;17.50;44.07;96534.91;4968245;28;20043;-67
2021/09/30 07:20:57;;;;;;;4.80;1.17;;;;;;;17.89;44.38;96539.41;4949961;28;20072;-67
2021/09/30 07:23:23;;;;;;;3.47;0.93;;;;;;;17.30;45.56;96548.94;4929036;28;20104;-66
2021/09/30 07:25:49;;;;;;;4.22;1.10;;;;;;;15.95;46.68;96535.69;4950550;28;20054;-65
2021/09/30 07:28:14;;;;;;;2.80;1.13;;;;;;;16.44;46.01;96547.44;4947759;28;20217;-66
2021/09/30 07:30:40;;;;;;;2.40;0.73;;;;;;;15.49;47.81;96544.72;4948505;28;20054;-66
2021/09/30 07:33:08;;;;;;;4.32;0.80;;;;;;;15.35;48.31;96554.69;4948547;28;20101;-64
2021/09/30 07:35:34;;;;;;;3.63;0.90;;;;;;;16.28;46.12;96554.28;4951084;28;20546;-65
2021/09/30 07:38:00;;;;;;;1.70;0.70;;;;;;;16.14;46.16;96551.66;4954189;28;20031;-65
2021/09/30 07:40:25;;;;;;;3.25;1.27;;;;;;;15.22;48.32;96566.22;4969040;28;20030;-66
2021/09/30 07:42:50;;;;;;;2.08;0.63;;;;;;;15.28;48.41;96556.97;4971787;28;20473;-66
2021/09/30 07:45:16;;;;;;;1.55;0.60;;;;;;;14.79;47.86;96488.78;4971811;28;20562;-65
2021/09/30 07:47:42;;;;;;;4.60;1.23;;;;;;;16.56;44.61;96554.91;4971503;28;20042;-65
2021/09/30 07:50:08;;;;;;;3.28;1.08;;;;;;;16.94;44.51;96555.31;4987626;28;20031;-66
2021/09/30 07:52:34;;;;;;;3.40;0.80;;;;;;;16.07;45.27;96570.88;4957929;28;20055;-65
2021/09/30 07:55:00;;;;;;;5.53;1.30;;;;;;;16.34;44.90;96569.94;4951954;28;20405;-65
2021/09/30 07:57:28;;;;;;;3.95;0.95;;;;;;;16.13;45.17;96560.00;4951943;28;20098;-65
2021/09/30 07:59:54;;;;;;;2.72;0.90;;;;;;;15.21;47.34;96565.44;4966463;28;20043;-65
2021/09/30 08:02:19;;;;;;;4.43;1.27;;;;;;;15.68;46.58;96558.06;4967005;28;20037;-65
2021/09/30 08:04:45;;;;;;;1.45;0.80;;;;;;;16.32;45.29;96549.84;4953667;29;20061;-66
2021/09/30 08:07:10;;;;;;;4.30;0.60;;;;;;;16.23;46.00;96563.25;4957526;28;20138;-65
2021/09/30 08:09:35;;;;;;;3.30;1.10;;;;;;;15.53;47.75;96567.19;4941666;28;20070;-65
2021/09/30 08:12:02;;;;;;;5.30;1.00;;;;;;;15.75;47.37;96568.34;4944511;28;20049;-66
2021/09/30 08:14:27;;;;;;;4.75;0.90;;;;;;;16.05;46.68;96570.34;4986278;28;20073;-65
2021/09/30 08:16:53;;;;;;;2.58;1.00;;;;;;;15.59;47.47;96554.44;4973516;28;20457;-67
2021/09/30 08:19:19;;;;;;;3.65;0.93;;;;;;;15.39;48.24;96565.59;4970585;28;20592;-65
2021/09/30 08:21:44;;;;;;;1.75;0.75;;;;;;;15.34;47.88;96561.13;4978428;28;20035;-65
2021/09/30 08:24:16;;;;;;;2.15;1.10;;;;;;;15.72;47.62;96569.78;4951386;28;20050;-64
2021/09/30 08:26:43;;;;;;;3.70;1.15;;;;;;;16.21;46.56;96561.94;4952479;28;20046;-65
2021/09/30 08:29:09;;;;;;;2.78;0.70;;;;;;;15.70;46.47;96557.75;4953875;29;20038;-65
2021/09/30 08:31:35;;;;;;;3.25;1.00;;;;;;;15.11;46.59;96576.34;4948966;28;20047;-65
2021/09/30 08:34:02;;;;;;;1.63;0.70;;;;;;;16.80;44.49;96573.41;4946307;28;20043;-64
2021/09/30 08:36:28;;;;;;;4.07;0.88;;;;;;;16.50;43.96;96572.25;4954463;28;20295;-65
2021/09/30 08:38:54;;;;;;;2.97;1.00;;;;;;;16.49;44.32;96571.47;4962358;28;20035;-65
2021/09/30 08:41:20;;;;;;;2.58;0.70;;;;;;;16.68;43.56;96557.81;4970940;28;20490;-64
2021/09/30 08:43:46;;;;;;;2.67;0.80;;;;;;;16.57;42.87;96559.19;4972426;28;20497;-65
2021/09/30 08:46:13;;;;;;;2.38;0.70;;;;;;;17.52;41.39;96561.50;4969595;28;20045;-65
2021/09/30 08:48:39;;;;;;;3.67;0.80;;;;;;;17.94;40.16;96570.75;4970195;28;20057;-66
2021/09/30 08:51:06;;;;;;;3.50;1.17;;;;;;;19.02;38.36;96560.78;4964683;28;20734;-65
2021/09/30 08:53:33;;;;;;;2.85;0.80;;;;;;;19.94;36.99;96558.22;4935535;28;20081;-65
2021/09/30 08:55:59;;;;;;;2.35;0.90;;;;;;;20.50;35.15;96552.53;4956740;28;20048;-65
2021/09/30 08:58:25;;;;;;;4.32;0.70;;;;;;;20.70;34.55;96540.88;4932021;28;20403;-65
2021/09/30 09:00:52;;;;;;;1.75;0.80;;;;;;;21.08;33.70;96550.63;4931988;29;20170;-65
2021/09/30 09:03:33;;;;;;;3.05;0.65;;;;;;;18.23;37.69;96567.44;4932170;28;20565;-65
2021/09/30 09:05:59;;;;;;;2.53;0.68;;;;;;;17.65;38.38;96561.34;4936030;28;20080;-65
2021/09/30 09:08:24;;;;;;;2.40;0.90;;;;;;;16.22;41.22;96544.75;4932713;28;21391;-65
2021/09/30 09:10:52;;;;;;;4.07;0.60;;;;;;;16.33;41.58;96560.31;4955311;28;20042;-65
2021/09/30 09:13:18;;;;;;;3.40;0.70;;;;;;;17.24;39.77;96566.31;4968386;28;20046;-65
2021/09/30 09:15:49;;;;;;;2.50;0.63;;;;;;;16.82;41.50;96573.88;4969110;28;20185;-65
2021/09/30 09:18:27;;;;;;;2.17;0.60;;;;;;;17.19;41.42;96566.47;4969951;28;20038;-65
2021/09/30 09:21:20;;;;;;;4.60;0.98;;;;;;;17.95;39.39;96556.19;4966662;28;20107;-65
2021/09/30 09:23:57;;;;;;;4.00;1.15;;;;;;;18.26;37.01;96557.94;4931369;28;20076;-65
2021/09/30 09:26:23;;;;;;;1.92;0.47;;;;;;;17.61;38.34;96549.66;4960061;28;20083;-65
2021/09/30 09:29:04;;;;;;;4.57;0.73;;;;;;;17.91;38.78;96561.44;4971170;28;20035;-66
2021/09/30 09:31:52;;;;;;;2.00;0.68;;;;;;;17.85;38.84;96565.38;4969636;28;20053;-65
2021/09/30 09:34:30;;;;;;;2.05;0.82;;;;;;;18.08;38.10;96552.56;4969188;28;20043;-66
2021/09/30 09:37:40;;;;;;;2.38;0.60;;;;;;;18.31;37.48;96547.78;4952112;28;20120;-65
2021/09/30 09:40:15;;;;;;;4.22;0.93;;;;;;;19.82;36.10;96549.28;4944186;28;20516;-66
2021/09/30 09:42:40;;;;;;;2.80;0.70;;;;;;;18.22;37.20;96543.50;4960165;28;20062;-66
2021/09/30 09:45:52;;;;;;;3.80;0.77;;;;;;;17.46;37.58;96555.47;4975816;28;20049;-65
2021/09/30 09:48:18;;;;;;;1.08;0.52;;;;;;;17.54;38.00;96557.38;4969631;28;20456;-65
2021/09/30 09:50:43;;;;;;;2.83;0.80;;;;;;;17.06;37.59;96539.38;4968440;28;20039;-65
2021/09/30 09:53:09;;;;;;;2.17;0.35;;;;;;;18.78;35.22;96545.16;4935678;28;20043;-65
2021/09/30 09:55:37;;;;;;;2.05;0.50;;;;;;;19.09;34.61;96539.53;4925080;28;20498;-65
2021/09/30 09:58:15;;;;;;;2.13;0.60;;;;;;;20.92;32.99;96528.84;4930695;28;20047;-65
2021/09/30 10:01:01;;;;;;;3.65;0.80;;;;;;;21.09;31.04;96518.94;4941380;28;20047;-65
2021/09/30 10:03:31;;;;;;;1.80;0.70;;;;;;;21.79;30.72;96519.59;4950183;28;20043;-65
2021/09/30 10:06:01;;;;;;;1.25;0.50;;;;;;;22.28;30.67;96517.53;4949934;28;20081;-65
2021/09/30 10:08:27;;;;;;;3.33;0.60;;;;;;;21.97;30.06;96530.97;4956528;28;20122;-66
2021/09/30 10:10:55;;;;;;;3.33;0.60;;;;;;;20.66;32.14;96523.75;4951265;29;20074;-65
2021/09/30 10:13:21;;;;;;;3.22;0.73;;;;;;;19.91;33.15;96521.09;4948201;28;20470;-67
2021/09/30 10:15:47;;;;;;;2.75;0.88;;;;;;;19.80;34.00;96524.50;4930822;28;20067;-65
2021/09/30 10:18:13;;;;;;;1.90;0.82;;;;;;;20.87;32.15;96512.06;4952122;28;20071;-66
2021/09/30 10:20:41;;;;;;;2.00;0.68;;;;;;;20.39;33.05;96500.00;4949290;28;20078;-66
2021/09/30 10:23:09;;;;;;;3.05;0.98;;;;;;;19.29;35.34;96508.28;4950243;28;20023;-66
2021/09/30 10:25:43;;;;;;;4.60;0.90;;;;;;;18.49;36.92;96516.22;4931555;29;20044;-65
2021/09/30 10:28:11;;;;;;;3.03;0.90;;;;;;;18.48;37.46;96503.06;4944788;28;20142;-65
2021/09/30 10:30:41;;;;;;;2.33;0.73;;;;;;;17.60;38.50;96505.00;4939053;28;20051;-65
2021/09/30 10:33:09;;;;;;;0.82;0.50;;;;;;;17.52;37.97;96511.19;4934984;28;20039;-64
2021/09/30 10:35:40;;;;;;;1.77;0.63;;;;;;;18.88;36.74;96503.59;4949493;28;20031;-64
2021/09/30 10:38:15;;;;;;;1.25;0.55;;;;;;;18.20;35.66;96503.44;4950501;28;20023;-66
2021/09/30 10:41:14;;;;;;;0.88;0.50;;;;;;;17.65;36.65;96510.22;4947737;28;20086;-65
2021/09/30 10:43:47;;;;;;;1.20;0.68;;;;;;;17.75;36.94;96490.31;4929922;28;20050;-65
2021/09/30 10:46:22;;;;;;;2.55;0.60;;;;;;;18.73;36.25;96498.72;4930142;28;20401;-65
2021/09/30 10:48:50;;;;;;;2.25;0.60;;;;;;;19.83;34.67;96492.25;4929614;29;20130;-66
2021/09/30 10:51:16;;;;;;;1.90;0.68;;;;;;;20.66;34.20;96485.13;4931732;29;20028;-65
2021/09/30 10:53:44;;;;;;;1.67;0.50;;;;;;;19.76;33.47;96497.41;4948469;28;20039;-66
2021/09/30 10:56:37;;;;;;;4.40;1.00;;;;;;;19.97;33.31;96481.19;4950938;28;20050;-65
2021/09/30 10:59:09;;;;;;;1.42;0.70;;;;;;;20.61;32.18;96493.44;4948742;28;20193;-65
2021/09/30 11:01:55;;;;;;;4.22;0.77;;;;;;;21.26;31.74;96494.38;4931193;28;20052;-66
2021/09/30 11:04:25;;;;;;;3.00;0.93;;;;;;;21.52;30.34;96494.03;4944049;29;20055;-66
2021/09/30 11:07:05;;;;;;;1.65;0.45;;;;;;;22.45;29.90;96488.53;4936307;28;20134;-65
2021/09/30 11:09:31;;;;;;;3.25;1.05;;;;;;;23.39;29.34;96476.91;4932401;28;20055;-65
2021/09/30 11:12:08;;;;;;;2.45;0.70;;;;;;;23.81;27.98;96474.34;4967902;28;20428;-65
2021/09/30 11:14:53;;;;;;;2.88;0.85;;;;;;;20.19;31.83;96469.22;4952881;28;20081;-66
2021/09/30 11:17:34;;;;;;;2.67;0.40;;;;;;;20.48;32.76;96465.63;4954207;28;20035;-64
2021/09/30 11:20:35;;;;;;;4.43;0.70;;;;;;;20.38;32.14;96468.72;4968146;28;20132;-66
2021/09/30 11:23:03;;;;;;;1.95;0.60;;;;;;;20.58;32.29;96467.88;4952345;28;20040;-66
2021/09/30 11:26:06;;;;;;;3.35;0.70;;;;;;;20.06;32.83;96454.88;4952545;28;20118;-67
2021/09/30 11:28:32;;;;;;;1.83;0.60;;;;;;;20.32;33.05;96456.50;4944966;29;20043;-66
2021/09/30 11:31:23;;;;;;;1.20;0.50;;;;;;;19.12;34.35;96468.72;4965583;28;20386;-66
2021/09/30 11:33:49;;;;;;;1.67;0.60;;;;;;;19.08;35.08;96462.41;4970184;28;20616;-66
2021/09/30 11:36:15;;;;;;;2.28;0.60;;;;;;;19.76;34.51;96438.00;4985667;28;20057;-65
2021/09/30 11:38:42;;;;;;;2.00;0.68;;;;;;;19.32;34.61;96452.91;4954089;28;20038;-65
2021/09/30 11:41:08;;;;;;;3.42;0.50;;;;;;;19.09;34.41;96453.22;4951430;28;20023;-66
2021/09/30 11:43:34;;;;;;;2.40;0.60;;;;;;;19.39;34.50;96439.69;4949019;28;20055;-66
2021/09/30 11:46:23;;;;;;;3.15;0.85;;;;;;;19.78;33.52;96451.94;4960013;28;20673;-66
2021/09/30 11:49:05;;;;;;;2.70;0.75;;;;;;;19.76;33.70;96439.88;4971377;28;20186;-66
2021/09/30 11:51:30;;;;;;;;;;;;;;;20.78;31.94;96436.47;4969682;28;20409;-65
2021/09/30 11:53:55;;;;;;;4.97;0.77;;;;;;;20.14;32.53;96434.31;4937505;28;19930;-66
2021/09/30 11:56:21;;;;;;;1.17;0.40;;;;;;;20.13;31.71;96440.84;4950909;28;20023;-65
2021/09/30 11:59:05;;;;;;;4.90;0.60;;;;;;;19.35;33.62;96417.97;4953616;28;20089;-65
2021/09/30 12:01:36;;;;;;;1.27;0.55;;;;;;;19.33;34.20;96422.13;4969859;28;20130;-64
2021/09/30 12:04:03;;;;;;;2.75;0.98;;;;;;;19.84;33.00;96422.84;4971086;28;20067;-65
2021/09/30 12:06:42;;;;;;;2.17;0.60;;;;;;;19.84;32.91;96422.84;4969903;28;20034;-65
2021/09/30 12:09:12;;;;;;;2.78;0.60;;;;;;;18.74;34.76;96422.16;4935624;28;20044;-66
2021/09/30 12:11:40;;;;;;;1.63;0.43;;;;;;;19.98;33.36;96405.22;4951962;28;20594;-65
2021/09/30 12:14:08;;;;;;;2.67;0.73;;;;;;;19.37;34.41;96401.47;4968357;28;20105;-66
2021/09/30 12:16:51;;;;;;;2.28;0.85;;;;;;;18.86;34.62;96416.88;4968704;28;20034;-65
2021/09/30 12:19:31;;;;;;;2.45;0.85;;;;;;;19.13;34.51;96410.19;4970378;28;20047;-64
2021/09/30 12:21:57;;;;;;;4.93;2.35;;;;;;;19.40;33.47;96395.41;4980510;28;20043;-65
2021/09/30 12:24:30;;;;;;;1.00;0.60;;;;;;;19.64;33.80;96402.84;4935856;28;20513;-65
2021/09/30 12:26:56;;;;;;;1.10;0.30;;;;;;;19.98;33.34;96412.53;4951946;28;20038;-65
2021/09/30 12:29:22;;;;;;;2.45;0.60;;;;;;;20.89;32.75;96398.94;4951838;28;20027;-65
2021/09/30 12:32:03;;;;;;;1.75;0.57;;;;;;;20.22;31.94;96401.00;4972949;28;20035;-65
2021/09/30 12:34:29;;;;;;;3.65;0.50;;;;;;;20.08;32.97;96395.13;4970827;28;20050;-65
2021/09/30 12:36:54;;;;;;;1.65;0.60;;;;;;;19.39;34.08;96383.81;4966709;28;20405;-65
2021/09/30 12:39:31;;;;;;;2.22;0.77;;;;;;;18.69;35.18;96382.72;4927149;28;20044;-65
2021/09/30 12:42:16;;;;;;;1.30;0.60;;;;;;;18.44;35.04;96377.09;4952174;28;20046;-64
2021/09/30 12:44:49;;;;;;;2.95;1.08;;;;;;;20.11;33.12;96372.84;4962976;28;20147;-65
2021/09/30 12:47:58;;;;;;;3.45;0.88;;;;;;;19.20;33.57;96368.09;4934170;29;20584;-65
2021/09/30 12:50:34;;;;;;;1.90;0.63;;;;;;;19.65;33.51;96347.72;4928293;29;20099;-65
2021/09/30 12:53:02;;;;;;;0.88;0.45;;;;;;;20.19;33.20;96363.84;4933195;29;20039;-64
2021/09/30 12:55:29;;;;;;;1.83;0.73;;;;;;;20.97;32.49;96344.72;4948937;28;20023;-65
2021/09/30 12:57:55;;;;;;;1.73;0.50;;;;;;;21.16;30.99;96332.50;4952765;28;20047;-64
2021/09/30 13:00:22;;;;;;;2.95;0.98;;;;;;;21.00;31.30;96335.91;4931577;28;20103;-65
2021/09/30 13:02:49;;;;;;;2.47;0.50;;;;;;;21.16;31.30;96330.56;4942590;28;20032;-65
2021/09/30 13:05:15;;;;;;;4.57;0.55;;;;;;;21.24;30.68;96337.78;4914869;29;20028;-65
2021/09/30 13:07:58;;;;;;;3.47;0.73;;;;;;;20.87;30.20;96198.34;4945639;29;20102;-64
2021/09/30 13:10:34;;;;;;;2.05;0.60;;;;;;;22.29;29.79;96323.16;4949468;28;20043;-65
2021/09/30 13:13:01;;;;;;;0.73;0.40;;;;;;;21.21;30.55;96318.72;4950874;28;20118;-66
2021/09/30 13:15:41;;;;;;;1.45;0.70;;;;;;;21.57;30.37;96328.66;4949840;28;20421;-65
2021/09/30 13:18:09;;;;;;;3.80;0.63;;;;;;;22.29;29.05;96306.91;4950949;28;20493;-65
2021/09/30 13:20:35;;;;;;;1.10;0.75;;;;;;;22.09;28.95;96326.91;4948879;28;20028;-65
2021/09/30 13:23:00;;;;;;;2.90;0.90;;;;;;;22.33;29.31;96317.84;4951818;29;20101;-65
2021/09/30 13:25:26;;;;;;;1.10;0.65;;;;;;;22.89;28.48;96307.53;4947766;28;20043;-65
2021/09/30 13:27:53;;;;;;;2.60;0.60;;;;;;;21.84;29.80;96310.00;4943833;28;20066;-65
2021/09/30 13:30:22;;;;;;;1.98;0.57;;;;;;;22.83;28.74;96304.28;4958221;28;20065;-65
2021/09/30 13:32:49;;;;;;;1.58;0.47;;;;;;;22.88;28.40;96303.25;4983675;28;20035;-65
2021/09/30 13:35:16;;;;;;;2.65;0.90;;;;;;;22.92;28.35;96306.03;4971804;28;20468;-66
2021/09/30 13:37:42;;;;;;;1.45;0.60;;;;;;;20.60;30.78;96308.81;4956626;28;20047;-65
2021/09/30 13:40:09;;;;;;;2.83;0.50;;;;;;;22.36;28.89;96298.16;4916906;28;20367;-65
2021/09/30 13:42:37;;;;;;;2.45;0.57;;;;;;;22.96;28.82;96296.03;4923087;28;20043;-65
2021/09/30 13:45:04;;;;;;;3.20;0.35;;;;;;;23.29;28.39;96288.22;4931118;28;20028;-65
2021/09/30 13:47:30;;;;;;;0.65;0.40;;;;;;;23.43;28.22;96289.63;4961432;23;20039;-71
2021/09/30 13:49:56;;;;;;;1.20;0.55;;;;;;;21.76;29.19;96277.34;4970869;28;20401;-70
2021/09/30 13:52:22;;;;;;;1.45;0.60;;;;;;;21.02;29.87;96265.25;4951555;28;20139;-71
2021/09/30 13:54:48;;;;;;;3.72;0.50;;;;;;;21.86;30.26;96276.03;4936231;28;20039;-71
2021/09/30 13:57:13;;;;;;;1.30;0.60;;;;;;;22.49;29.65;96261.69;4944013;28;20042;-70
2021/09/30 13:59:39;;;;;;;1.65;0.60;;;;;;;21.37;29.46;96280.94;4949593;28;20493;-70
2021/09/30 14:02:05;;;;;;;2.53;0.55;;;;;;;21.49;29.09;96270.03;4951950;29;20058;-70
2021/09/30 14:04:31;;;;;;;2.83;0.60;;;;;;;20.59;30.45;96261.31;4949550;28;20529;-69
2021/09/30 14:06:58;;;;;;;2.58;0.63;;;;;;;19.59;32.07;96284.25;4949601;28;20058;-70
2021/09/30 14:09:24;;;;;;;1.80;0.70;;;;;;;20.42;31.40;96264.22;4948634;28;20043;-70
2021/09/30 14:11:52;;;;;;;2.20;0.50;;;;;;;20.81;30.82;96268.13;4947967;28;20039;-70
2021/09/30 14:14:18;;;;;;;1.35;0.50;;;;;;;19.98;32.47;96269.41;4966063;28;20023;-70
2021/09/30 14:16:48;;;;;;;1.92;0.68;;;;;;;19.08;34.01;96268.25;4950303;29;20047;-71
2021/09/30 14:19:14;;;;;;;2.30;1.02;;;;;;;19.98;33.02;96272.09;4949388;28;20043;-70
2021/09/30 14:21:39;;;;;;;1.52;0.60;;;;;;;19.07;34.26;96268.56;4950110;28;20421;-71
2021/09/30 14:24:05;;;;;;;4.28;0.60;;;;;;;20.06;32.63;96260.38;4948552;28;20047;-70
2021/09/30 14:26:30;;;;;;;1.40;0.50;;;;;;;20.88;31.64;96259.41;4951132;28;20019;-69
2021/09/30 14:28:55;;;;;;;1.10;0.50;;;;;;;20.43;31.53;96268.50;4954393;28;20589;-69
2021/09/30 14:31:21;;;;;;;1.15;0.60;;;;;;;21.22;30.73;96252.66;4949629;28;20043;-69
2021/09/30 14:33:46;;;;;;;2.20;0.60;;;;;;;21.86;29.96;96248.16;4948045;28;20482;-69